Time;durP1;ratioP1;P1;durP2;ratioP2;P2;SDS_P1;SDS_P2;PMS_P1;PMS_P2;Temp;Humidity;BMP_temperature;BMP_pressure;BME280_temperature;BME280_humidity;BME280_pressure;Samples;Min_cycle;Max_cycle;Signal;HPM_P1;HPM_P2
2023/07/26 00:00:06;;;;;;;4.95;2.10;;;15.90;92.10;;;;;;5116345;28;20130;-72
2023/07/26 00:02:32;;;;;;;4.93;2.03;;;15.90;92.40;;;;;;5117503;28;20039;-72
2023/07/26 00:04:58;;;;;;;5.18;2.03;;;15.90;92.50;;;;;;5117435;28;20032;-73
2023/07/26 00:07:23;;;;;;;4.22;1.80;;;15.90;92.40;;;;;;5117305;28;20035;-73
2023/07/26 00:09:49;;;;;;;4.88;2.10;;;15.90;92.40;;;;;;5117261;28;20036;-72
2023/07/26 00:12:14;;;;;;;4.47;1.95;;;15.90;92.30;;;;;;5117161;28;20092;-72
2023/07/26 00:14:40;;;;;;;4.05;1.90;;;15.80;92.40;;;;;;5116954;28;20047;-73
2023/07/26 00:17:06;;;;;;;4.82;1.77;;;15.80;92.40;;;;;;5117290;28;20064;-73
2023/07/26 00:19:32;;;;;;;4.55;1.85;;;15.80;92.40;;;;;;5116975;28;20401;-72
2023/07/26 00:21:57;;;;;;;4.65;1.98;;;15.80;92.60;;;;;;5116531;28;20047;-73
2023/07/26 00:24:23;;;;;;;4.63;1.80;;;15.70;92.60;;;;;;5116975;28;20043;-73
2023/07/26 00:26:52;;;;;;;5.00;1.83;;;15.70;92.60;;;;;;5116828;28;20501;-73
2023/07/26 00:29:17;;;;;;;4.57;1.83;;;15.70;92.40;;;;;;5114853;28;20062;-73
2023/07/26 00:31:43;;;;;;;5.10;2.05;;;15.60;92.50;;;;;;5116014;28;20040;-73
2023/07/26 00:34:09;;;;;;;3.15;1.45;;;15.60;92.50;;;;;;5115795;28;20126;-73
2023/07/26 00:36:34;;;;;;;4.28;2.10;;;15.60;92.40;;;;;;5116269;28;20048;-73
2023/07/26 00:39:00;;;;;;;5.13;1.98;;;15.60;92.30;;;;;;5116600;28;20126;-73
2023/07/26 00:41:26;;;;;;;5.57;1.90;;;15.50;92.30;;;;;;5116349;28;20046;-73
2023/07/26 00:43:51;;;;;;;3.63;1.80;;;15.50;92.30;;;;;;5113846;28;20051;-73
2023/07/26 00:46:18;;;;;;;3.80;1.85;;;15.40;92.40;;;;;;5111782;28;20047;-73
2023/07/26 00:48:46;;;;;;;3.67;1.98;;;15.50;92.50;;;;;;5116363;28;20123;-73
2023/07/26 00:51:12;;;;;;;3.67;1.55;;;15.40;92.60;;;;;;5115964;28;20500;-73
2023/07/26 00:53:38;;;;;;;3.47;1.50;;;15.40;92.70;;;;;;5114198;28;20079;-74
2023/07/26 00:56:09;;;;;;;4.55;1.80;;;15.40;92.50;;;;;;5115890;28;20082;-73
2023/07/26 00:58:35;;;;;;;4.63;1.75;;;15.40;92.70;;;;;;5115718;28;20052;-73
2023/07/26 01:01:01;;;;;;;5.57;1.90;;;15.40;92.80;;;;;;5115766;27;20051;-73
2023/07/26 01:03:27;;;;;;;3.03;1.70;;;15.30;93.00;;;;;;5115595;28;20052;-74
2023/07/26 01:06:13;;;;;;;4.80;1.88;;;15.30;92.80;;;;;;5115301;28;20043;-73
2023/07/26 01:09:15;;;;;;;3.85;1.80;;;15.30;92.40;;;;;;5115357;28;20047;-73
2023/07/26 01:12:21;;;;;;;5.00;1.75;;;15.20;92.20;;;;;;5115601;28;20044;-73
2023/07/26 01:15:07;;;;;;;4.38;2.00;;;15.20;92.00;;;;;;5104761;28;20043;-73
2023/07/26 01:17:37;;;;;;;4.53;1.80;;;15.10;92.30;;;;;;5115045;28;20397;-73
2023/07/26 01:20:06;;;;;;;4.05;1.80;;;15.10;92.80;;;;;;5115629;28;20075;-72
2023/07/26 01:22:35;;;;;;;4.18;1.90;;;15.10;92.60;;;;;;5114591;28;20035;-73
2023/07/26 01:25:01;;;;;;;4.72;1.98;;;15.10;92.60;;;;;;5115777;28;20043;-73
2023/07/26 01:27:26;;;;;;;4.60;1.90;;;15.10;92.50;;;;;;5115045;28;20118;-73
2023/07/26 01:29:55;;;;;;;3.70;1.90;;;15.00;92.50;;;;;;5115530;28;20054;-73
2023/07/26 01:32:24;;;;;;;3.70;2.00;;;15.00;92.70;;;;;;5114784;28;20051;-74
2023/07/26 01:34:49;;;;;;;4.63;2.15;;;15.00;92.60;;;;;;5112448;28;20489;-73
2023/07/26 01:37:18;;;;;;;3.03;1.70;;;15.00;92.60;;;;;;5114798;28;20055;-73
2023/07/26 01:39:44;;;;;;;3.97;2.08;;;15.00;92.60;;;;;;5114827;28;20043;-73
2023/07/26 01:42:10;;;;;;;4.25;1.90;;;15.00;92.90;;;;;;5115161;28;20047;-73
2023/07/26 01:44:36;;;;;;;4.55;1.70;;;14.90;92.70;;;;;;5115312;28;20097;-73
2023/07/26 01:47:02;;;;;;;4.10;1.65;;;14.90;92.90;;;;;;5113055;28;20393;-73
2023/07/26 01:49:28;;;;;;;4.68;1.98;;;14.90;92.50;;;;;;5114856;28;20073;-73
2023/07/26 01:51:54;;;;;;;4.95;2.08;;;14.90;92.30;;;;;;5114934;28;20598;-73
2023/07/26 01:54:19;;;;;;;4.95;1.98;;;14.90;92.30;;;;;;5115077;28;20043;-73
2023/07/26 01:56:45;;;;;;;4.80;2.22;;;14.80;92.50;;;;;;5114655;28;20378;-73
2023/07/26 01:59:11;;;;;;;3.65;1.73;;;14.80;92.60;;;;;;5115058;28;20050;-73
2023/07/26 02:01:36;;;;;;;3.47;1.73;;;14.80;92.50;;;;;;5114195;28;20038;-73
2023/07/26 02:04:02;;;;;;;7.30;2.20;;;14.70;92.30;;;;;;5113303;28;20559;-73
2023/07/26 02:06:28;;;;;;;5.13;2.10;;;14.70;92.50;;;;;;5113263;28;20562;-73
2023/07/26 02:08:53;;;;;;;4.47;1.90;;;14.70;92.40;;;;;;5114675;28;20124;-73
2023/07/26 02:11:19;;;;;;;3.70;1.88;;;14.70;92.80;;;;;;5114188;28;20043;-73
2023/07/26 02:13:44;;;;;;;4.35;2.03;;;14.60;92.80;;;;;;5114255;28;20055;-73
2023/07/26 02:16:10;;;;;;;3.15;1.75;;;14.60;92.90;;;;;;5113930;28;20382;-73
2023/07/26 02:18:35;;;;;;;2.83;1.48;;;14.60;92.60;;;;;;5113949;28;20040;-73
2023/07/26 02:21:01;;;;;;;3.70;1.80;;;14.60;92.80;;;;;;5113681;28;20039;-73
2023/07/26 02:23:27;;;;;;;3.75;1.92;;;14.60;93.00;;;;;;5114134;28;20047;-73
2023/07/26 02:25:52;;;;;;;3.08;1.50;;;14.60;93.00;;;;;;5114458;28;20470;-73
2023/07/26 02:28:18;;;;;;;4.45;1.98;;;14.60;92.80;;;;;;5114280;28;20138;-73
2023/07/26 02:30:43;;;;;;;4.90;2.30;;;14.50;92.80;;;;;;5114147;28;20122;-72
2023/07/26 02:33:09;;;;;;;5.60;1.88;;;14.50;93.00;;;;;;5113882;28;20067;-73
2023/07/26 02:35:37;;;;;;;4.90;2.33;;;14.50;93.20;;;;;;5112792;28;20048;-72
2023/07/26 02:38:06;;;;;;;4.15;1.77;;;14.50;93.00;;;;;;5106770;28;20092;-73
2023/07/26 02:40:31;;;;;;;3.70;1.73;;;14.50;92.90;;;;;;5113653;28;20596;-73
2023/07/26 02:42:57;;;;;;;3.92;1.75;;;14.50;93.00;;;;;;5114141;28;20074;-73
2023/07/26 02:45:23;;;;;;;3.63;1.88;;;14.50;93.10;;;;;;5113485;28;20047;-73
2023/07/26 02:47:48;;;;;;;4.10;2.22;;;14.40;93.20;;;;;;5113501;28;20046;-73
2023/07/26 02:50:14;;;;;;;3.20;1.80;;;14.40;93.20;;;;;;5113453;28;20088;-73
2023/07/26 02:52:40;;;;;;;4.07;1.80;;;14.40;93.30;;;;;;5100094;28;20138;-73
2023/07/26 02:55:05;;;;;;;6.82;1.88;;;14.40;93.10;;;;;;5112788;28;20036;-73
2023/07/26 02:57:31;;;;;;;3.70;1.80;;;14.40;93.30;;;;;;5113600;28;20114;-73
2023/07/26 02:59:57;;;;;;;3.58;1.65;;;14.40;93.30;;;;;;5113927;28;20075;-73
2023/07/26 03:02:25;;;;;;;4.82;2.08;;;14.40;93.20;;;;;;5113429;28;20553;-73
2023/07/26 03:04:53;;;;;;;4.15;1.92;;;14.30;93.20;;;;;;5113366;28;20071;-73
2023/07/26 03:07:19;;;;;;;3.15;1.65;;;14.30;93.20;;;;;;5112888;28;20050;-73
2023/07/26 03:09:45;;;;;;;3.97;1.80;;;14.30;93.00;;;;;;5111952;28;20044;-73
2023/07/26 03:12:10;;;;;;;4.07;1.98;;;14.20;93.20;;;;;;5113063;28;20043;-73
2023/07/26 03:14:40;;;;;;;3.97;1.80;;;14.20;93.10;;;;;;5113496;28;20047;-73
2023/07/26 03:17:07;;;;;;;4.13;1.90;;;14.20;93.20;;;;;;5113328;28;20146;-73
2023/07/26 03:19:33;;;;;;;3.40;1.70;;;14.20;93.30;;;;;;5113222;28;20075;-73
2023/07/26 03:21:58;;;;;;;4.78;1.85;;;14.20;93.30;;;;;;5113049;28;20075;-72
2023/07/26 03:24:24;;;;;;;3.47;1.75;;;14.10;93.20;;;;;;5112905;28;20051;-73
2023/07/26 03:26:50;;;;;;;4.32;1.88;;;14.10;93.20;;;;;;5113481;28;20086;-72
2023/07/26 03:29:16;;;;;;;7.22;2.03;;;14.10;93.20;;;;;;5113264;28;20075;-73
2023/07/26 03:31:41;;;;;;;3.65;1.70;;;14.10;93.20;;;;;;5112954;28;20047;-73
2023/07/26 03:34:07;;;;;;;3.53;1.65;;;14.10;93.20;;;;;;5112114;28;20485;-72
2023/07/26 03:36:32;;;;;;;3.78;1.70;;;14.00;93.10;;;;;;5112922;28;20382;-73
2023/07/26 03:38:58;;;;;;;3.53;1.83;;;14.00;93.10;;;;;;5112129;28;20090;-73
2023/07/26 03:41:24;;;;;;;3.85;1.63;;;14.00;93.20;;;;;;5113277;28;20122;-73
2023/07/26 03:43:49;;;;;;;4.10;1.70;;;14.00;93.30;;;;;;5112678;28;20043;-73
2023/07/26 03:46:15;;;;;;;3.90;1.70;;;14.00;93.30;;;;;;5112877;28;20461;-72
2023/07/26 03:48:40;;;;;;;3.97;1.80;;;14.00;93.30;;;;;;5112873;28;20040;-72
2023/07/26 03:51:06;;;;;;;3.35;1.70;;;14.00;93.20;;;;;;5113144;28;20092;-72
2023/07/26 03:53:32;;;;;;;3.67;1.80;;;14.00;93.40;;;;;;5111671;28;20401;-72
2023/07/26 03:55:57;;;;;;;4.78;1.92;;;14.00;93.50;;;;;;5113116;28;20044;-73
2023/07/26 03:58:23;;;;;;;3.60;1.90;;;14.00;93.60;;;;;;5112435;28;20035;-72
2023/07/26 04:00:49;;;;;;;3.80;1.80;;;14.00;93.50;;;;;;5113021;28;20046;-73
2023/07/26 04:03:15;;;;;;;3.53;1.80;;;13.90;93.40;;;;;;5111936;28;20486;-73
2023/07/26 04:05:40;;;;;;;3.28;1.88;;;13.90;93.80;;;;;;5112691;28;20513;-72
2023/07/26 04:08:07;;;;;;;4.85;2.08;;;13.90;93.60;;;;;;5112416;28;20047;-72
2023/07/26 04:10:33;;;;;;;3.80;1.60;;;13.90;93.40;;;;;;5112549;28;20449;-72
2023/07/26 04:12:58;;;;;;;4.38;2.00;;;13.90;93.40;;;;;;5112731;28;20130;-72
2023/07/26 04:15:24;;;;;;;3.72;1.65;;;13.90;93.50;;;;;;5112366;28;20047;-73
2023/07/26 04:17:49;;;;;;;3.95;1.90;;;13.90;93.40;;;;;;5112435;28;20118;-72
2023/07/26 04:20:15;;;;;;;4.25;2.00;;;13.90;93.30;;;;;;5112432;28;20078;-71
2023/07/26 04:22:41;;;;;;;4.32;1.80;;;13.90;93.30;;;;;;5113042;28;20096;-72
2023/07/26 04:25:08;;;;;;;3.75;1.90;;;13.90;93.30;;;;;;5112363;28;20098;-73
2023/07/26 04:27:33;;;;;;;4.35;1.90;;;13.90;93.60;;;;;;5112732;28;20493;-71
2023/07/26 04:29:59;;;;;;;3.80;1.83;;;13.90;93.60;;;;;;5113001;28;20050;-71
2023/07/26 04:32:24;;;;;;;3.45;1.90;;;13.90;93.60;;;;;;5112136;28;20123;-72
2023/07/26 04:34:50;;;;;;;5.22;2.03;;;13.90;93.70;;;;;;5112151;28;20044;-72
2023/07/26 04:37:16;;;;;;;3.67;1.85;;;13.90;93.70;;;;;;5112452;28;20048;-71
2023/07/26 04:39:41;;;;;;;4.32;1.83;;;13.90;93.70;;;;;;5112270;28;20482;-71
2023/07/26 04:42:07;;;;;;;4.15;1.92;;;13.90;93.70;;;;;;5113179;28;20092;-71
2023/07/26 04:44:32;;;;;;;3.78;1.95;;;13.90;93.80;;;;;;5114346;28;20044;-72
2023/07/26 04:46:58;;;;;;;3.72;1.88;;;13.90;93.90;;;;;;5114800;28;20178;-71
2023/07/26 04:49:24;;;;;;;3.28;1.73;;;13.90;94.00;;;;;;5116481;28;20047;-71
2023/07/26 04:51:49;;;;;;;4.20;1.88;;;13.90;94.00;;;;;;5116262;28;20399;-71
2023/07/26 04:54:15;;;;;;;4.00;1.80;;;13.90;94.10;;;;;;5116158;28;20401;-72
2023/07/26 04:56:40;;;;;;;4.10;1.80;;;14.00;94.20;;;;;;5116155;28;20477;-71
2023/07/26 04:59:06;;;;;;;3.85;1.92;;;14.00;94.20;;;;;;5115315;28;20066;-71
2023/07/26 05:01:32;;;;;;;3.13;1.77;;;13.90;94.10;;;;;;5115090;28;20048;-71
2023/07/26 05:03:57;;;;;;;3.17;1.70;;;13.90;94.10;;;;;;5116044;28;20081;-71
2023/07/26 05:06:24;;;;;;;3.10;1.60;;;14.00;94.10;;;;;;5115829;28;20035;-71
2023/07/26 05:08:51;;;;;;;3.75;1.52;;;14.00;94.20;;;;;;5114578;28;20036;-72
2023/07/26 05:11:20;;;;;;;3.85;1.80;;;14.00;94.00;;;;;;5115297;28;20122;-72
2023/07/26 05:13:47;;;;;;;4.60;1.88;;;14.00;93.90;;;;;;5115698;28;20044;-72
2023/07/26 05:16:12;;;;;;;4.32;1.80;;;14.00;93.80;;;;;;5114693;28;20123;-72
2023/07/26 05:18:38;;;;;;;3.28;1.60;;;14.00;94.10;;;;;;5114502;28;20126;-71
2023/07/26 05:21:04;;;;;;;3.03;1.58;;;13.90;94.00;;;;;;5115617;28;20078;-72
2023/07/26 05:23:29;;;;;;;2.70;1.48;;;14.00;93.70;;;;;;5115559;28;20492;-73
2023/07/26 05:25:55;;;;;;;2.50;1.42;;;14.00;93.80;;;;;;5115348;28;20040;-72
2023/07/26 05:28:21;;;;;;;4.28;1.88;;;14.00;93.70;;;;;;5115664;28;20397;-71
2023/07/26 05:30:46;;;;;;;3.25;1.83;;;14.00;93.70;;;;;;5114373;28;20067;-71
2023/07/26 05:33:12;;;;;;;2.78;1.40;;;14.00;93.80;;;;;;5115786;28;20163;-71
2023/07/26 05:35:38;;;;;;;3.75;1.48;;;14.00;93.70;;;;;;5115260;27;20052;-72
2023/07/26 05:38:04;;;;;;;3.38;1.52;;;14.00;93.70;;;;;;5115600;28;20127;-71
2023/07/26 05:40:30;;;;;;;3.10;1.60;;;14.00;93.70;;;;;;5115570;28;20169;-72
2023/07/26 05:42:55;;;;;;;4.32;1.50;;;14.00;93.60;;;;;;5115667;28;20079;-72
2023/07/26 05:45:21;;;;;;;2.97;1.40;;;14.00;93.60;;;;;;5115058;28;20485;-71
2023/07/26 05:47:46;;;;;;;3.15;1.17;;;14.00;93.70;;;;;;5115365;28;20048;-72
2023/07/26 05:50:12;;;;;;;3.17;1.45;;;14.00;93.80;;;;;;5115191;28;20121;-72
2023/07/26 05:52:38;;;;;;;3.45;1.50;;;14.00;93.80;;;;;;5115419;28;20035;-71
2023/07/26 05:55:04;;;;;;;4.18;1.42;;;14.00;93.80;;;;;;5115356;28;20381;-72
2023/07/26 05:57:30;;;;;;;2.42;1.30;;;14.10;93.80;;;;;;5114711;28;20066;-72
2023/07/26 05:59:56;;;;;;;3.28;1.58;;;14.10;93.70;;;;;;5114940;28;20560;-72
2023/07/26 06:02:21;;;;;;;3.20;1.40;;;14.10;93.80;;;;;;5115190;28;20059;-72
2023/07/26 06:04:47;;;;;;;3.58;1.50;;;14.10;93.80;;;;;;5114932;27;20039;-71
2023/07/26 06:07:13;;;;;;;2.83;1.30;;;14.10;93.70;;;;;;5115131;28;20051;-72
2023/07/26 06:09:39;;;;;;;3.38;1.60;;;14.10;93.60;;;;;;5115136;28;20040;-71
2023/07/26 06:12:05;;;;;;;3.25;1.40;;;14.10;93.60;;;;;;5114286;28;20051;-72
2023/07/26 06:14:31;;;;;;;3.13;1.60;;;14.10;93.50;;;;;;5114385;28;20031;-72
2023/07/26 06:16:57;;;;;;;3.08;1.55;;;14.10;93.50;;;;;;5114221;28;20040;-72
2023/07/26 06:19:23;;;;;;;2.85;1.40;;;14.10;93.60;;;;;;5107526;28;20097;-72
2023/07/26 06:21:50;;;;;;;2.45;1.33;;;14.20;93.60;;;;;;5113391;28;20048;-72
2023/07/26 06:24:15;;;;;;;2.95;1.60;;;14.20;93.50;;;;;;5113867;28;20550;-71
2023/07/26 06:26:41;;;;;;;3.75;1.50;;;14.20;93.60;;;;;;5113161;28;20040;-72
2023/07/26 06:29:06;;;;;;;3.17;1.50;;;14.20;93.70;;;;;;5114561;28;20075;-71
2023/07/26 06:31:32;;;;;;;2.97;1.48;;;14.20;93.90;;;;;;5114033;28;20571;-71
2023/07/26 06:33:58;;;;;;;4.28;1.70;;;14.30;94.00;;;;;;5113489;28;20062;-71
2023/07/26 06:36:23;;;;;;;3.90;1.60;;;14.30;94.10;;;;;;5114290;28;20063;-71
2023/07/26 06:38:49;;;;;;;3.60;1.70;;;14.30;94.10;;;;;;5112708;28;20046;-71
2023/07/26 06:41:15;;;;;;;3.55;1.70;;;14.30;94.10;;;;;;5113479;28;20055;-72
2023/07/26 06:43:41;;;;;;;3.08;1.42;;;14.30;94.00;;;;;;5113450;28;20047;-71
2023/07/26 06:46:07;;;;;;;2.80;1.50;;;14.40;94.00;;;;;;5112963;28;20477;-71
2023/07/26 06:48:32;;;;;;;3.47;1.40;;;14.40;94.00;;;;;;5113427;28;20173;-72
2023/07/26 06:50:58;;;;;;;4.22;1.92;;;14.40;93.90;;;;;;5113431;28;20122;-71
2023/07/26 06:53:23;;;;;;;5.03;2.35;;;14.40;93.90;;;;;;5113213;28;20048;-71
2023/07/26 06:55:49;;;;;;;3.38;1.60;;;14.40;94.50;;;;;;5113521;28;20036;-71
2023/07/26 06:58:15;;;;;;;4.07;2.08;;;14.50;94.60;;;;;;5112579;28;20394;-70
2023/07/26 07:00:40;;;;;;;3.55;1.55;;;14.50;94.50;;;;;;5113039;28;20481;-70
2023/07/26 07:03:06;;;;;;;2.88;1.60;;;14.50;94.30;;;;;;5112108;28;20131;-70
2023/07/26 07:05:35;;;;;;;3.70;1.80;;;14.50;94.20;;;;;;5113150;28;20474;-71
2023/07/26 07:08:01;;;;;;;3.28;1.50;;;14.50;94.10;;;;;;5112496;28;20048;-71
2023/07/26 07:10:26;;;;;;;3.08;1.52;;;14.50;94.00;;;;;;5113113;28;20051;-71
2023/07/26 07:12:52;;;;;;;3.20;1.60;;;14.50;94.10;;;;;;5112547;28;20553;-71
2023/07/26 07:15:17;;;;;;;3.60;1.55;;;14.50;94.10;;;;;;5113531;28;20127;-71
2023/07/26 07:17:43;;;;;;;4.93;1.60;;;14.50;94.00;;;;;;5112619;28;20043;-71
2023/07/26 07:20:10;;;;;;;3.08;1.60;;;14.50;94.10;;;;;;5113287;28;20066;-71
2023/07/26 07:22:36;;;;;;;3.05;1.65;;;14.50;94.20;;;;;;5113644;28;20119;-71
2023/07/26 07:25:03;;;;;;;3.65;1.75;;;14.50;94.10;;;;;;5112995;28;20119;-71
2023/07/26 07:27:29;;;;;;;3.65;1.77;;;14.60;94.10;;;;;;5113826;28;20073;-71
2023/07/26 07:29:55;;;;;;;3.30;1.70;;;14.60;94.20;;;;;;5112420;28;20035;-71
2023/07/26 07:32:23;;;;;;;4.30;2.22;;;14.60;94.20;;;;;;5113403;28;20048;-71
2023/07/26 07:34:50;;;;;;;3.88;2.00;;;14.60;94.90;;;;;;5113101;28;20197;-71
2023/07/26 07:37:20;;;;;;;5.38;2.15;;;14.60;95.10;;;;;;5111272;28;20080;-71
2023/07/26 07:39:45;;;;;;;6.15;2.20;;;14.60;95.50;;;;;;5112610;28;20515;-71
2023/07/26 07:42:11;;;;;;;3.90;2.00;;;14.60;95.60;;;;;;5112006;28;20043;-71
2023/07/26 07:44:37;;;;;;;3.10;1.60;;;14.60;95.60;;;;;;5098607;28;20051;-71
2023/07/26 07:47:02;;;;;;;4.88;1.70;;;14.60;95.70;;;;;;5100308;28;20032;-71
2023/07/26 07:49:28;;;;;;;3.90;1.58;;;14.60;95.40;;;;;;5112879;28;20047;-71
2023/07/26 07:51:54;;;;;;;2.53;1.42;;;14.50;94.90;;;;;;5112632;28;20538;-71
2023/07/26 07:54:19;;;;;;;2.97;1.60;;;14.50;94.80;;;;;;5112887;28;20085;-71
2023/07/26 07:56:45;;;;;;;3.65;1.50;;;14.50;94.80;;;;;;5113245;28;20040;-71
2023/07/26 07:59:12;;;;;;;5.43;1.70;;;14.50;95.00;;;;;;5112693;28;20051;-72
2023/07/26 08:01:43;;;;;;;2.65;1.40;;;14.50;95.00;;;;;;5112173;28;20048;-71
2023/07/26 08:04:12;;;;;;;3.25;1.40;;;14.50;95.10;;;;;;5113030;28;20047;-71
2023/07/26 08:06:37;;;;;;;2.97;1.38;;;14.60;95.30;;;;;;5112233;28;20038;-71
2023/07/26 08:09:03;;;;;;;3.75;1.42;;;14.60;95.10;;;;;;5103159;28;20148;-71
2023/07/26 08:11:29;;;;;;;4.47;1.60;;;14.60;95.20;;;;;;5103027;28;20035;-72
2023/07/26 08:13:54;;;;;;;4.43;1.40;;;14.60;95.30;;;;;;5112803;28;20031;-71
2023/07/26 08:16:20;;;;;;;5.53;1.77;;;14.60;95.80;;;;;;5112752;28;20055;-72
2023/07/26 08:18:45;;;;;;;4.00;1.50;;;14.60;96.50;;;;;;5115456;28;20032;-71
2023/07/26 08:21:12;;;;;;;4.20;1.95;;;14.70;96.00;;;;;;5115738;28;20073;-72
2023/07/26 08:23:39;;;;;;;3.92;1.60;;;14.70;96.20;;;;;;5116445;28;20054;-72
2023/07/26 08:26:06;;;;;;;3.15;1.30;;;14.70;96.20;;;;;;5116621;28;20051;-71
2023/07/26 08:28:32;;;;;;;3.83;1.90;;;14.70;96.10;;;;;;5100130;28;20051;-72
2023/07/26 08:30:58;;;;;;;3.15;1.60;;;14.80;96.20;;;;;;5111871;28;20100;-72
2023/07/26 08:33:24;;;;;;;4.00;1.65;;;14.80;96.40;;;;;;5098029;28;20048;-72
2023/07/26 08:35:50;;;;;;;3.97;1.88;;;14.80;96.30;;;;;;5115981;28;20063;-72
2023/07/26 08:38:17;;;;;;;4.32;2.20;;;14.90;96.90;;;;;;5113413;28;20047;-72
2023/07/26 08:40:48;;;;;;;5.50;2.88;;;15.00;97.50;;;;;;5110747;28;20081;-72
2023/07/26 08:43:15;;;;;;;6.35;2.60;;;15.00;98.50;;;;;;5113445;28;20097;-72
2023/07/26 08:45:44;;;;;;;4.18;2.20;;;15.20;98.40;;;;;;5115627;28;20040;-72
2023/07/26 08:48:10;;;;;;;5.38;2.13;;;15.20;98.60;;;;;;5109834;28;20078;-72
2023/07/26 08:50:39;;;;;;;5.25;2.30;;;15.30;98.60;;;;;;5103204;28;20039;-72
2023/07/26 08:53:06;;;;;;;3.95;1.95;;;15.40;98.50;;;;;;5114306;28;20067;-71
2023/07/26 08:55:32;;;;;;;5.97;2.30;;;15.50;98.20;;;;;;5115357;28;20128;-71
2023/07/26 08:57:59;;;;;;;3.88;1.90;;;15.60;98.20;;;;;;5113590;28;20048;-72
2023/07/26 09:00:28;;;;;;;5.35;2.20;;;15.70;98.20;;;;;;5111941;28;20042;-72
2023/07/26 09:03:06;;;;;;;4.18;2.00;;;15.80;98.30;;;;;;5113315;28;20129;-72
2023/07/26 09:05:32;;;;;;;5.53;2.08;;;15.90;98.40;;;;;;5114003;28;20039;-73
2023/07/26 09:07:58;;;;;;;4.35;1.92;;;16.00;98.40;;;;;;5106266;28;20043;-72
2023/07/26 09:10:25;;;;;;;4.32;2.17;;;16.10;98.10;;;;;;5083486;28;20052;-72
2023/07/26 09:12:51;;;;;;;3.72;2.00;;;16.10;97.90;;;;;;5102455;28;20486;-72
2023/07/26 09:15:18;;;;;;;5.18;2.35;;;16.20;98.00;;;;;;5107870;27;20097;-72
2023/07/26 09:17:44;;;;;;;5.63;2.30;;;16.30;97.80;;;;;;5104102;28;20032;-72
2023/07/26 09:20:25;;;;;;;4.90;1.77;;;16.40;97.90;;;;;;5110356;28;20036;-72
2023/07/26 09:22:59;;;;;;;5.20;2.58;;;16.40;97.40;;;;;;5099929;28;20037;-72
2023/07/26 09:25:34;;;;;;;4.05;2.13;;;16.50;97.80;;;;;;5100167;27;20494;-72
2023/07/26 09:28:01;;;;;;;4.10;2.05;;;16.60;97.80;;;;;;5096056;28;20532;-72
2023/07/26 09:30:27;;;;;;;6.00;2.13;;;16.70;97.90;;;;;;5103829;28;21984;-72
2023/07/26 09:32:55;;;;;;;4.10;2.17;;;16.80;97.90;;;;;;5095502;28;20040;-71
2023/07/26 09:35:21;;;;;;;4.85;2.10;;;16.90;97.80;;;;;;5095003;28;20131;-71
2023/07/26 09:37:46;;;;;;;4.70;2.30;;;16.90;97.30;;;;;;5097978;28;20525;-71
2023/07/26 09:40:12;;;;;;;5.03;2.50;;;17.00;97.00;;;;;;5094133;28;20043;-72
2023/07/26 09:42:46;;;;;;;4.93;2.47;;;17.00;97.10;;;;;;5097930;28;20079;-72
2023/07/26 09:45:18;;;;;;;5.95;2.30;;;17.00;96.80;;;;;;5097992;28;20032;-71
2023/07/26 09:47:44;;;;;;;5.40;2.45;;;17.00;96.70;;;;;;5095511;28;20055;-73
2023/07/26 09:50:24;;;;;;;4.63;2.10;;;17.00;96.50;;;;;;5099716;28;20036;-72
2023/07/26 09:52:53;;;;;;;4.70;1.92;;;17.00;96.50;;;;;;5096097;28;20097;-72
2023/07/26 09:55:25;;;;;;;4.72;2.00;;;17.00;96.50;;;;;;5096536;28;20040;-73
2023/07/26 09:57:55;;;;;;;4.60;2.33;;;17.00;96.70;;;;;;5100446;28;20040;-72
2023/07/26 10:00:26;;;;;;;4.95;2.25;;;17.00;97.00;;;;;;5094716;28;20134;-72
2023/07/26 10:03:03;;;;;;;4.45;2.33;;;17.00;97.30;;;;;;5100147;28;20473;-72
2023/07/26 10:05:36;;;;;;;4.55;2.00;;;17.10;97.40;;;;;;5099719;28;20562;-72
2023/07/26 10:08:02;;;;;;;5.43;2.33;;;17.10;97.20;;;;;;5097006;28;20486;-72
2023/07/26 10:10:28;;;;;;;4.97;2.22;;;17.20;97.20;;;;;;5096865;28;20509;-73
2023/07/26 10:12:57;;;;;;;4.53;2.47;;;17.20;97.30;;;;;;5108969;28;20047;-72
2023/07/26 10:15:25;;;;;;;5.35;2.80;;;17.20;97.60;;;;;;5100435;28;20062;-72
2023/07/26 10:17:52;;;;;;;5.63;3.10;;;17.30;97.60;;;;;;5108322;28;20122;-72
2023/07/26 10:20:18;;;;;;;5.10;2.80;;;17.30;97.80;;;;;;5107666;28;20054;-72
2023/07/26 10:22:45;;;;;;;5.47;2.85;;;17.40;97.60;;;;;;5112136;28;20048;-73
2023/07/26 10:25:11;;;;;;;5.00;2.58;;;17.40;97.70;;;;;;5102013;28;20071;-73
2023/07/26 10:27:38;;;;;;;5.22;2.38;;;17.50;97.70;;;;;;5100245;28;20493;-72
2023/07/26 10:30:05;;;;;;;8.05;2.90;;;17.60;97.40;;;;;;5112645;28;20054;-72
2023/07/26 10:32:31;;;;;;;6.15;2.40;;;17.60;97.40;;;;;;5110829;28;20066;-72
2023/07/26 10:34:58;;;;;;;6.65;2.70;;;17.70;97.30;;;;;;5108843;28;20492;-72
2023/07/26 10:37:33;;;;;;;4.82;2.35;;;17.70;97.60;;;;;;5104103;28;20521;-72
2023/07/26 10:39:59;;;;;;;5.10;2.28;;;17.80;97.40;;;;;;5109152;28;20067;-73
2023/07/26 10:42:25;;;;;;;4.97;2.47;;;17.80;97.10;;;;;;5100716;28;20478;-72
2023/07/26 10:44:57;;;;;;;4.00;2.13;;;17.90;96.90;;;;;;5102496;28;20067;-72
2023/07/26 10:47:22;;;;;;;4.40;2.20;;;17.90;96.50;;;;;;5093901;28;20044;-73
2023/07/26 10:49:48;;;;;;;5.43;2.38;;;18.00;96.20;;;;;;5095438;28;20042;-72
2023/07/26 10:52:14;;;;;;;5.57;2.20;;;18.00;96.00;;;;;;5095116;28;20048;-72
2023/07/26 10:54:43;;;;;;;5.63;2.00;;;18.00;95.60;;;;;;5094747;28;20039;-72
2023/07/26 10:57:26;;;;;;;4.85;2.00;;;18.10;95.60;;;;;;5093418;28;20055;-72
2023/07/26 11:00:09;;;;;;;5.85;2.38;;;18.10;95.40;;;;;;5098414;28;20047;-72
2023/07/26 11:02:43;;;;;;;5.63;2.00;;;18.10;95.60;;;;;;5106442;28;20039;-73
2023/07/26 11:05:15;;;;;;;4.55;2.00;;;18.10;95.60;;;;;;5104261;28;20077;-74
2023/07/26 11:08:00;;;;;;;4.35;2.10;;;18.20;95.50;;;;;;5108504;28;20162;-74
2023/07/26 11:10:29;;;;;;;4.68;1.90;;;18.20;95.70;;;;;;5106098;28;20070;-74
2023/07/26 11:13:16;;;;;;;5.15;1.60;;;18.20;95.60;;;;;;5104176;28;20051;-73
2023/07/26 11:15:47;;;;;;;3.05;1.50;;;18.20;95.00;;;;;;5099272;28;20047;-73
2023/07/26 11:18:14;;;;;;;3.88;1.52;;;18.30;94.70;;;;;;5092802;28;20035;-74
2023/07/26 11:20:45;;;;;;;3.20;1.10;;;18.30;94.90;;;;;;5092929;28;20093;-74
2023/07/26 11:23:18;;;;;;;4.28;1.38;;;18.40;94.80;;;;;;5090822;28;20052;-74
2023/07/26 11:25:48;;;;;;;3.25;1.50;;;18.40;95.20;;;;;;5091922;28;20081;-74
2023/07/26 11:28:15;;;;;;;5.10;1.58;;;18.50;94.50;;;;;;5079568;28;20423;-74
2023/07/26 11:30:49;;;;;;;3.35;1.50;;;18.50;94.50;;;;;;5094430;28;20039;-74
2023/07/26 11:33:34;;;;;;;3.22;1.20;;;18.60;94.50;;;;;;5094174;28;20099;-74
2023/07/26 11:36:07;;;;;;;2.92;1.20;;;18.60;93.80;;;;;;5092320;28;20083;-74
2023/07/26 11:38:41;;;;;;;4.43;1.30;;;18.70;94.30;;;;;;5092633;28;20136;-73
2023/07/26 11:41:07;;;;;;;3.15;1.40;;;18.80;94.40;;;;;;5092513;28;20119;-73
2023/07/26 11:43:37;;;;;;;3.20;1.48;;;18.80;94.20;;;;;;5099200;28;20047;-74
2023/07/26 11:46:02;;;;;;;4.28;1.70;;;18.90;94.40;;;;;;5092402;28;20051;-74
2023/07/26 11:48:31;;;;;;;3.28;1.42;;;18.90;94.10;;;;;;5092483;28;20052;-74
2023/07/26 11:50:59;;;;;;;3.13;1.38;;;18.90;94.40;;;;;;5111218;28;20039;-74
2023/07/26 11:53:30;;;;;;;3.10;1.30;;;19.00;94.40;;;;;;5116057;28;20046;-74
2023/07/26 11:55:56;;;;;;;5.30;2.00;;;19.00;94.50;;;;;;5112075;28;20032;-74
2023/07/26 11:58:21;;;;;;;4.93;1.75;;;19.10;94.80;;;;;;5097198;28;20131;-74
2023/07/26 12:00:48;;;;;;;3.67;1.70;;;19.10;94.20;;;;;;5097811;28;20081;-74
2023/07/26 12:03:13;;;;;;;4.90;1.85;;;19.20;93.80;;;;;;5107652;28;20088;-74
2023/07/26 12:05:46;;;;;;;4.75;1.90;;;19.20;93.50;;;;;;5097255;28;20036;-74
2023/07/26 12:08:12;;;;;;;3.97;1.50;;;19.30;93.40;;;;;;5097028;28;20051;-74
2023/07/26 12:10:42;;;;;;;5.25;2.00;;;19.40;93.70;;;;;;5095660;28;20040;-74
2023/07/26 12:13:18;;;;;;;4.03;1.60;;;19.40;93.40;;;;;;5110460;28;20032;-74
2023/07/26 12:15:51;;;;;;;4.60;1.70;;;19.40;93.80;;;;;;5116056;28;20047;-74
2023/07/26 12:18:18;;;;;;;4.07;1.70;;;19.50;93.20;;;;;;5112896;28;20096;-74
2023/07/26 12:21:01;;;;;;;5.55;1.92;;;19.60;93.10;;;;;;5117187;28;20447;-74
2023/07/26 12:23:29;;;;;;;4.97;1.77;;;19.60;93.00;;;;;;5112085;28;20050;-74
2023/07/26 12:26:01;;;;;;;5.15;1.90;;;19.70;93.10;;;;;;5117034;28;20036;-74
2023/07/26 12:28:26;;;;;;;4.43;1.65;;;19.80;92.60;;;;;;5117206;28;20108;-74
2023/07/26 12:30:57;;;;;;;5.65;1.83;;;19.90;92.70;;;;;;5116354;28;20040;-74
2023/07/26 12:33:24;;;;;;;3.95;1.55;;;19.90;92.20;;;;;;5117031;28;20043;-74
2023/07/26 12:35:55;;;;;;;4.38;1.92;;;20.00;92.20;;;;;;5116424;28;20379;-75
2023/07/26 12:38:23;;;;;;;4.80;1.60;;;20.10;91.70;;;;;;5111108;28;20048;-74
2023/07/26 12:40:51;;;;;;;5.97;1.60;;;20.20;91.70;;;;;;5097235;28;20127;-74
2023/07/26 12:43:26;;;;;;;6.68;1.70;;;20.20;91.40;;;;;;5100457;28;20505;-74
2023/07/26 12:45:57;;;;;;;6.05;2.38;;;20.20;91.00;;;;;;5104078;28;20054;-74
2023/07/26 12:48:25;;;;;;;5.90;2.03;;;20.30;91.40;;;;;;5098803;28;20054;-74